aviador You're here:

GMFK Decoded Metar

ER-RACHIDIA in MOROCCO
Report Time2018-06-18 15:00:00
UTC Time2018-06-18 15:25:48
Flight Rules vfr VFR
Wind230° at 08 kt
W.Decomp.*RWY 31: 1.7 kt HW 7.8 kt LCW
W.Rank230° ranks 16
Current wind is above 230° avg. (6.6)
Visibility9999 m
Phenomena:N/A
Clouds:N/A
Expected CloudBase > 18,400 ft AGL from Temp-Dew spread
CeilingNone
Temp36°C (ISA +28)
Dew Point-10°C (5% RH)
Heat Index33.1°C
AAT30.1°C
QNH1019 hPa
Density Alt6,388 ft
Elevation3,428 ft
Report Wrong Elevation
Raw Report
METAR GMFK 181500Z 23008KT 180V270 CAVOK 36/M10 Q1019 NOSIG=

Extra information for GMFK:More info

Metar Taf Metar & Taf Last 4 Metars F.Rules Stats Wind Profile Meteogram Temp Stats Airport Information Weather charts Add Link Nearby VenuesMetar ALERT Operation Metar Decoded Social comments